createdAt,value
2019-05-16T00:01:19.522Z,9.80
2019-05-16T00:03:49.212Z,9.80
2019-05-16T00:06:18.748Z,9.90
2019-05-16T00:08:48.281Z,9.90
2019-05-16T00:11:18.110Z,9.90
2019-05-16T00:13:48.772Z,9.90
2019-05-16T00:16:19.030Z,9.90
2019-05-16T00:18:48.637Z,9.90
2019-05-16T00:21:18.213Z,9.90
2019-05-16T00:23:48.501Z,9.80
2019-05-16T00:26:19.747Z,9.80
2019-05-16T00:28:49.590Z,9.90
2019-05-16T00:31:19.040Z,9.90
2019-05-16T00:33:48.855Z,9.90
2019-05-16T00:36:19.017Z,9.90
2019-05-16T00:38:48.707Z,9.80
2019-05-16T00:41:18.353Z,9.90
2019-05-16T00:43:48.583Z,9.80
2019-05-16T00:46:20.042Z,9.90
2019-05-16T00:48:49.422Z,9.80
2019-05-16T00:51:18.923Z,9.80
2019-05-16T00:53:48.504Z,9.80
2019-05-16T00:56:18.635Z,9.80
2019-05-16T00:58:48.629Z,9.80
2019-05-16T01:01:19.049Z,9.80
2019-05-16T01:03:48.647Z,9.80
2019-05-16T01:06:22.560Z,9.80
2019-05-16T01:08:49.241Z,9.80
2019-05-16T01:11:19.314Z,9.80
2019-05-16T01:13:48.913Z,9.80
2019-05-16T01:16:18.815Z,9.80
2019-05-16T01:18:48.931Z,9.80
2019-05-16T01:21:18.785Z,9.70
2019-05-16T01:23:48.521Z,9.70
2019-05-16T01:26:18.591Z,9.60
2019-05-16T01:28:48.613Z,9.60
2019-05-16T01:31:19.180Z,9.60
2019-05-16T01:33:48.881Z,9.70
2019-05-16T01:36:33.024Z,9.70
2019-05-16T01:38:50.027Z,9.70
2019-05-16T01:41:19.535Z,9.70
2019-05-16T01:43:48.939Z,9.70
2019-05-16T01:46:18.402Z,9.70
2019-05-16T01:48:48.436Z,9.60
2019-05-16T01:51:18.521Z,9.60
2019-05-16T01:53:48.879Z,9.60
2019-05-16T01:56:18.561Z,9.70
2019-05-16T01:58:49.029Z,9.60
2019-05-16T02:01:19.179Z,9.60
2019-05-16T02:03:49.100Z,9.70
2019-05-16T02:06:18.642Z,9.60
2019-05-16T02:08:48.688Z,9.60
2019-05-16T02:11:18.470Z,9.70
2019-05-16T02:13:48.591Z,9.70
2019-05-16T02:16:18.728Z,9.70
2019-05-16T02:18:48.936Z,9.60
2019-05-16T02:21:18.584Z,9.60
2019-05-16T02:23:49.045Z,9.60
2019-05-16T02:26:19.409Z,9.60
2019-05-16T02:28:50.675Z,9.60
2019-05-16T02:31:22.790Z,9.60
2019-05-16T02:33:51.392Z,9.60
2019-05-16T02:36:21.879Z,9.60
2019-05-16T02:38:55.565Z,9.60
2019-05-16T02:41:22.746Z,9.60
2019-05-16T02:43:52.209Z,9.50
2019-05-16T02:46:22.093Z,9.50
2019-05-16T02:48:52.088Z,9.50
2019-05-16T02:51:21.792Z,9.50
2019-05-16T02:53:51.405Z,9.50
2019-05-16T02:56:21.413Z,9.50
2019-05-16T02:58:52.318Z,9.50
2019-05-16T03:01:22.132Z,9.50
2019-05-16T03:03:52.002Z,9.60
2019-05-16T03:06:22.097Z,9.60
2019-05-16T03:08:52.329Z,9.60
2019-05-16T03:11:21.821Z,9.60
2019-05-16T03:13:51.573Z,9.60
2019-05-16T03:16:22.233Z,9.60
2019-05-16T03:18:52.287Z,9.60
2019-05-16T03:21:23.242Z,9.60
2019-05-16T03:23:52.710Z,9.50
2019-05-16T03:26:22.211Z,9.60
2019-05-16T03:28:52.366Z,9.60
2019-05-16T03:31:24.327Z,9.60
2019-05-16T03:33:59.161Z,9.60
2019-05-16T03:36:25.690Z,9.60
2019-05-16T03:38:55.341Z,9.70
2019-05-16T03:41:24.853Z,9.60
2019-05-16T03:43:54.312Z,9.60
2019-05-16T03:46:23.769Z,9.60
2019-05-16T03:48:53.278Z,9.70
2019-05-16T03:51:22.753Z,9.70
2019-05-16T03:53:52.146Z,9.70
2019-05-16T03:56:22.167Z,9.70
2019-05-16T03:58:51.661Z,9.80
2019-05-16T04:01:21.458Z,9.80
2019-05-16T04:03:51.545Z,9.90
2019-05-16T04:06:22.060Z,10.00
2019-05-16T04:08:51.793Z,9.90
2019-05-16T04:11:23.428Z,9.90
2019-05-16T04:13:52.409Z,9.90
2019-05-16T04:16:21.856Z,9.90
2019-05-16T04:18:51.644Z,9.90
2019-05-16T04:21:22.078Z,9.90
2019-05-16T04:23:51.906Z,10.00
2019-05-16T04:26:21.972Z,10.00
2019-05-16T04:28:51.901Z,10.00
2019-05-16T04:31:22.214Z,9.90
2019-05-16T04:33:52.068Z,9.90
2019-05-16T04:36:21.650Z,9.80
2019-05-16T04:38:51.541Z,9.80
2019-05-16T04:41:21.592Z,9.80
2019-05-16T04:43:51.262Z,10.00
2019-05-16T04:46:21.553Z,9.90
2019-05-16T04:48:51.340Z,9.90
2019-05-16T04:51:21.967Z,10.00
2019-05-16T04:53:51.692Z,9.90
2019-05-16T04:56:21.934Z,10.00
2019-05-16T04:58:51.794Z,10.00
2019-05-16T05:01:21.825Z,10.10
2019-05-16T05:04:06.689Z,10.20
2019-05-16T05:06:22.651Z,10.30
2019-05-16T05:08:58.464Z,10.30
2019-05-16T05:11:23.303Z,10.40
2019-05-16T05:13:52.771Z,10.60
2019-05-16T05:16:22.277Z,10.60
2019-05-16T05:18:51.807Z,10.70
2019-05-16T05:21:21.273Z,10.80
2019-05-16T05:23:51.012Z,10.90
2019-05-16T05:26:20.610Z,11.00
2019-05-16T05:28:50.783Z,11.10
2019-05-16T05:31:25.039Z,11.10
2019-05-16T05:33:51.799Z,11.20
2019-05-16T05:36:21.309Z,11.30
2019-05-16T05:39:00.250Z,11.40
2019-05-16T05:41:22.131Z,11.50
2019-05-16T05:43:54.398Z,11.40
2019-05-16T05:46:22.846Z,11.30
2019-05-16T05:48:52.312Z,11.30
2019-05-16T05:51:21.800Z,11.30
2019-05-16T05:53:51.295Z,11.40
2019-05-16T05:56:20.767Z,11.50
2019-05-16T05:58:51.200Z,11.60
2019-05-16T06:01:20.946Z,11.80
2019-05-16T06:03:50.677Z,11.90
2019-05-16T06:06:21.091Z,12.10
2019-05-16T06:08:50.841Z,12.20
2019-05-16T06:11:20.619Z,12.40
2019-05-16T06:13:50.320Z,12.50
2019-05-16T06:16:20.595Z,12.50
2019-05-16T06:18:50.426Z,12.40
2019-05-16T06:21:20.610Z,12.40
2019-05-16T06:23:50.933Z,12.40
2019-05-16T06:26:20.724Z,12.20
2019-05-16T06:28:50.637Z,12.20
2019-05-16T06:31:22.102Z,12.40
2019-05-16T06:33:51.475Z,12.60
2019-05-16T06:36:20.954Z,12.70
2019-05-16T06:38:50.445Z,12.90
2019-05-16T06:41:20.141Z,13.00
2019-05-16T06:43:50.695Z,13.10
2019-05-16T06:46:20.451Z,13.30
2019-05-16T06:48:50.576Z,13.50
2019-05-16T06:51:20.280Z,13.70
2019-05-16T06:53:50.204Z,13.60
2019-05-16T06:56:20.234Z,13.70
2019-05-16T06:58:52.001Z,13.90
2019-05-16T07:01:21.132Z,13.90
2019-05-16T07:03:50.958Z,14.00
2019-05-16T07:06:45.624Z,14.20
2019-05-16T07:08:51.725Z,14.20
2019-05-16T07:11:21.346Z,14.10
2019-05-16T07:13:52.044Z,14.10
2019-05-16T07:16:21.787Z,14.10
2019-05-16T07:18:51.186Z,14.30
2019-05-16T07:21:20.650Z,14.30
2019-05-16T07:23:51.137Z,14.40
2019-05-16T07:26:20.829Z,14.30
2019-05-16T07:28:51.583Z,14.40
2019-05-16T07:31:22.545Z,14.60
2019-05-16T07:33:52.269Z,14.80
2019-05-16T07:36:21.666Z,14.90
2019-05-16T07:38:51.154Z,14.70
2019-05-16T07:41:20.670Z,14.60
2019-05-16T07:43:50.856Z,14.40
2019-05-16T07:46:20.888Z,14.40
2019-05-16T07:48:51.834Z,14.20
2019-05-16T07:51:21.711Z,13.90
2019-05-16T07:53:51.222Z,13.80
2019-05-16T07:56:20.785Z,13.80
2019-05-16T07:58:50.729Z,13.70
2019-05-16T08:01:20.512Z,13.40
2019-05-16T08:03:50.873Z,13.60
2019-05-16T08:06:20.714Z,13.70
2019-05-16T08:08:50.823Z,13.90
2019-05-16T08:11:23.648Z,14.20
2019-05-16T08:13:52.160Z,14.20
2019-05-16T08:16:21.662Z,14.30
2019-05-16T08:18:51.125Z,14.10
2019-05-16T08:21:20.751Z,14.10
2019-05-16T08:23:50.705Z,14.20
2019-05-16T08:28:51.443Z,14.10
2019-05-16T08:33:21.270Z,14.10
2019-05-16T08:33:54.467Z,14.40
2019-05-16T08:36:23.358Z,14.70
2019-05-16T08:38:52.827Z,15.10
2019-05-16T08:41:22.447Z,15.50
2019-05-16T08:43:53.390Z,15.50
2019-05-16T08:46:23.125Z,15.50
2019-05-16T08:48:54.168Z,15.60
2019-05-16T08:51:23.965Z,15.60
2019-05-16T08:53:53.436Z,15.60
2019-05-16T08:56:23.095Z,15.80
2019-05-16T09:01:23.783Z,16.20
2019-05-16T09:03:53.245Z,16.30
2019-05-16T09:06:23.204Z,16.40
2019-05-16T09:08:52.716Z,16.40
2019-05-16T09:10:30.769Z,16.00
2019-05-16T09:10:31.318Z,14.20
2019-05-16T09:11:35.019Z,16.60
2019-05-16T09:13:53.330Z,16.60
2019-05-16T09:16:22.803Z,16.80
2019-05-16T09:18:52.333Z,17.10
2019-05-16T09:21:21.955Z,17.50
2019-05-16T09:23:51.425Z,18.00
2019-05-16T09:26:20.895Z,18.60
2019-05-16T09:28:50.419Z,18.90
2019-05-16T09:31:19.920Z,18.90
2019-05-16T09:33:49.389Z,18.60
2019-05-16T09:36:18.883Z,18.90
2019-05-16T09:38:48.858Z,19.10
2019-05-16T09:41:18.405Z,19.20
2019-05-16T09:43:48.917Z,19.20
2019-05-16T09:46:18.495Z,19.10
2019-05-16T09:48:48.156Z,19.10
2019-05-16T09:51:21.182Z,19.10
2019-05-16T09:53:49.048Z,19.40
2019-05-16T09:56:18.450Z,19.40
2019-05-16T09:58:47.871Z,19.90
2019-05-16T10:01:17.647Z,19.80
2019-05-16T10:03:47.896Z,19.50
2019-05-16T10:06:19.217Z,19.60
2019-05-16T10:08:48.945Z,19.50
2019-05-16T10:11:18.456Z,19.10
2019-05-16T10:13:48.027Z,19.20
2019-05-16T10:16:17.492Z,19.20
2019-05-16T10:18:47.534Z,19.30
2019-05-16T10:21:20.483Z,19.70
2019-05-16T10:23:48.526Z,20.00
2019-05-16T10:26:19.410Z,20.30
2019-05-16T10:28:49.185Z,20.10
2019-05-16T10:31:18.736Z,20.00
2019-05-16T10:33:48.305Z,19.90
2019-05-16T10:36:21.392Z,20.10
2019-05-16T10:38:49.030Z,20.20
2019-05-16T10:41:18.496Z,20.10
2019-05-16T10:43:47.961Z,19.80
2019-05-16T10:46:17.824Z,19.70
2019-05-16T10:48:47.410Z,19.70
2019-05-16T10:51:17.150Z,19.50
2019-05-16T10:54:05.771Z,19.80
2019-05-16T10:56:18.049Z,19.60
2019-05-16T10:59:24.872Z,19.50
2019-05-16T11:01:26.936Z,19.80
2019-05-16T11:03:49.946Z,20.00
2019-05-16T11:06:25.914Z,20.40
2019-05-16T11:08:50.638Z,20.40
2019-05-16T11:11:20.208Z,20.30
2019-05-16T11:13:51.130Z,20.00
2019-05-16T11:16:20.911Z,19.70
2019-05-16T11:18:50.470Z,19.30
2019-05-16T11:21:19.974Z,19.30
2019-05-16T11:23:49.345Z,19.40
2019-05-16T11:26:18.802Z,19.70
2019-05-16T11:28:49.186Z,19.90
2019-05-16T11:31:18.957Z,20.50
2019-05-16T11:33:48.422Z,21.50
2019-05-16T11:36:17.849Z,21.70
2019-05-16T11:38:47.710Z,21.30
2019-05-16T11:41:17.297Z,20.90
2019-05-16T11:43:47.342Z,20.00
2019-05-16T11:46:17.037Z,19.50
2019-05-16T11:48:48.665Z,19.20
2019-05-16T11:51:17.654Z,19.00
2019-05-16T11:53:47.642Z,18.80
2019-05-16T11:56:17.245Z,18.40
2019-05-16T11:58:47.333Z,18.30
2019-05-16T12:01:17.371Z,18.30
2019-05-16T12:03:46.998Z,18.30
2019-05-16T12:06:17.102Z,18.30
2019-05-16T12:08:46.946Z,18.10
2019-05-16T12:11:17.931Z,18.00
2019-05-16T12:13:47.825Z,17.80
2019-05-16T12:16:18.858Z,17.60
2019-05-16T12:18:48.643Z,17.50
2019-05-16T12:21:18.075Z,17.50
2019-05-16T12:23:47.470Z,17.50
2019-05-16T12:26:17.703Z,17.60
2019-05-16T12:28:47.421Z,17.60
2019-05-16T12:31:17.560Z,17.60
2019-05-16T12:33:47.866Z,17.80
2019-05-16T12:36:17.755Z,17.90
2019-05-16T12:38:47.184Z,17.90
2019-05-16T12:41:16.671Z,17.90
2019-05-16T12:43:52.666Z,17.80
2019-05-16T12:46:17.303Z,17.80
2019-05-16T12:48:47.442Z,18.00
2019-05-16T12:51:17.346Z,18.10
2019-05-16T12:53:47.773Z,17.90
2019-05-16T12:56:17.791Z,17.90
2019-05-16T12:58:49.195Z,17.90
2019-05-16T13:01:20.775Z,18.00
2019-05-16T13:03:49.758Z,18.10
2019-05-16T13:06:19.253Z,18.20
2019-05-16T13:08:48.570Z,18.40
2019-05-16T13:11:18.043Z,18.30
2019-05-16T13:14:02.378Z,18.20
2019-05-16T13:16:18.737Z,17.80
2019-05-16T13:18:48.168Z,17.50
2019-05-16T13:21:19.179Z,17.30
2019-05-16T13:23:48.878Z,17.10
2019-05-16T13:26:18.340Z,16.90
2019-05-16T13:28:47.904Z,16.70
2019-05-16T13:31:17.433Z,16.50
2019-05-16T13:33:47.086Z,16.40
2019-05-16T13:36:17.369Z,16.20
2019-05-16T13:38:48.001Z,16.00
2019-05-16T13:41:18.351Z,15.90
2019-05-16T13:43:47.973Z,15.70
2019-05-16T13:46:17.373Z,15.60
2019-05-16T13:48:46.824Z,15.50
2019-05-16T13:51:18.958Z,15.40
2019-05-16T13:53:47.459Z,15.30
2019-05-16T13:56:17.817Z,15.20
2019-05-16T13:58:47.500Z,15.10
2019-05-16T14:01:17.336Z,15.00
2019-05-16T14:03:48.225Z,14.90
2019-05-16T14:06:18.577Z,14.90
2019-05-16T14:08:48.233Z,14.90
2019-05-16T14:11:17.724Z,14.80
2019-05-16T14:13:47.179Z,14.90
2019-05-16T14:16:18.125Z,14.70
2019-05-16T14:18:47.781Z,14.60
2019-05-16T14:21:18.126Z,14.50
2019-05-16T14:23:53.421Z,14.50
2019-05-16T14:26:19.243Z,14.40
2019-05-16T14:28:49.280Z,14.40
2019-05-16T14:31:19.073Z,14.30
2019-05-16T14:33:48.554Z,14.30
2019-05-16T14:36:18.015Z,14.40
2019-05-16T14:38:47.483Z,14.30
2019-05-16T14:41:17.553Z,14.30
2019-05-16T14:43:47.400Z,14.20
2019-05-16T14:46:18.313Z,14.10
2019-05-16T14:48:48.135Z,14.10
2019-05-16T14:51:18.141Z,14.10
2019-05-16T14:53:47.857Z,14.00
2019-05-16T14:56:17.359Z,14.00
2019-05-16T14:58:48.463Z,13.90
2019-05-16T15:01:17.938Z,13.90
2019-05-16T15:03:47.499Z,13.90
2019-05-16T15:06:18.230Z,13.80
2019-05-16T15:08:48.035Z,13.80
2019-05-16T15:11:18.147Z,13.70
2019-05-16T15:13:47.690Z,13.70
2019-05-16T15:16:17.171Z,13.70
2019-05-16T15:18:47.373Z,13.80
2019-05-16T15:21:17.773Z,13.70
2019-05-16T15:23:47.294Z,13.60
2019-05-16T15:26:18.216Z,13.60
2019-05-16T15:28:51.264Z,13.50
2019-05-16T15:31:19.072Z,13.50
2019-05-16T15:33:48.551Z,13.50
2019-05-16T15:36:18.011Z,13.50
2019-05-16T15:38:47.489Z,13.50
2019-05-16T15:41:17.427Z,13.40
2019-05-16T15:43:47.276Z,13.50
2019-05-16T15:46:17.290Z,13.40
2019-05-16T15:48:48.806Z,13.40
2019-05-16T15:51:21.203Z,13.40
2019-05-16T15:53:49.543Z,13.40
2019-05-16T15:56:18.965Z,13.40
2019-05-16T15:58:48.394Z,13.40
2019-05-16T16:01:18.692Z,13.50
2019-05-16T16:03:48.361Z,13.40
2019-05-16T16:06:18.007Z,13.30
2019-05-16T16:08:47.850Z,13.30
2019-05-16T16:11:17.563Z,13.30
2019-05-16T16:13:48.469Z,13.30
2019-05-16T16:16:18.115Z,13.30
2019-05-16T16:18:47.606Z,13.30
2019-05-16T16:21:17.000Z,13.40
2019-05-16T16:23:47.318Z,13.40
2019-05-16T16:26:17.889Z,13.40
2019-05-16T16:28:47.465Z,13.40
2019-05-16T16:31:17.024Z,13.40
2019-05-16T16:33:46.661Z,13.50
2019-05-16T16:36:17.086Z,13.40
2019-05-16T16:38:47.699Z,13.30
2019-05-16T16:41:17.397Z,13.30
2019-05-16T16:43:47.741Z,13.40
2019-05-16T16:46:17.428Z,13.30
2019-05-16T16:48:46.863Z,13.20
2019-05-16T16:51:17.709Z,13.20
2019-05-16T16:53:47.884Z,13.10
2019-05-16T16:56:17.383Z,13.10
2019-05-16T16:58:46.945Z,13.20
2019-05-16T17:01:17.384Z,13.20
2019-05-16T17:03:47.183Z,13.20
2019-05-16T17:06:17.686Z,13.20
2019-05-16T17:08:47.536Z,13.20
2019-05-16T17:11:17.517Z,13.20
2019-05-16T17:13:47.350Z,13.20
2019-05-16T17:16:23.041Z,13.20
2019-05-16T17:18:47.915Z,13.20
2019-05-16T17:21:17.383Z,13.20
2019-05-16T17:23:46.771Z,13.30
2019-05-16T17:26:16.321Z,13.20
2019-05-16T17:28:46.709Z,13.20
2019-05-16T17:31:16.946Z,13.20
2019-05-16T17:33:46.762Z,13.10
2019-05-16T17:36:17.232Z,13.10
2019-05-16T17:38:46.888Z,13.10
2019-05-16T17:41:37.834Z,13.10
2019-05-16T17:44:07.331Z,13.20
2019-05-16T17:46:40.548Z,13.10
2019-05-16T17:49:07.954Z,13.00
2019-05-16T17:51:37.448Z,13.00
2019-05-16T17:54:07.319Z,13.00
2019-05-16T17:56:37.081Z,13.00
2019-05-16T17:59:07.337Z,12.90
2019-05-16T18:01:36.926Z,12.90
2019-05-16T18:04:06.594Z,12.90
2019-05-16T18:06:37.105Z,12.90
2019-05-16T18:09:09.122Z,12.90
2019-05-16T18:11:38.656Z,12.90
2019-05-16T18:14:08.190Z,12.90
2019-05-16T18:16:51.742Z,12.80
2019-05-16T18:19:08.910Z,12.80
2019-05-16T18:21:38.367Z,12.80
2019-05-16T18:24:07.836Z,12.80
2019-05-16T18:26:37.442Z,12.80
2019-05-16T18:29:07.012Z,12.80
2019-05-16T18:31:37.295Z,12.80
2019-05-16T18:34:07.419Z,12.70
2019-05-16T18:36:37.020Z,12.70
2019-05-16T18:39:07.819Z,12.70
2019-05-16T18:41:37.305Z,12.60
2019-05-16T18:44:06.800Z,12.60
2019-05-16T18:46:36.432Z,12.60
2019-05-16T18:49:07.195Z,12.60
2019-05-16T18:51:37.041Z,12.60
2019-05-16T18:54:07.747Z,12.60
2019-05-16T18:56:37.348Z,12.60
2019-05-16T18:59:06.811Z,12.60
2019-05-16T19:01:37.528Z,12.50
2019-05-16T19:04:07.296Z,12.50
2019-05-16T19:06:37.108Z,12.50
2019-05-16T19:09:08.161Z,12.50
2019-05-16T19:11:37.662Z,12.50
2019-05-16T19:14:07.671Z,12.40
2019-05-16T19:16:37.205Z,12.40
2019-05-16T19:19:07.400Z,12.40
2019-05-16T19:21:37.037Z,12.40
2019-05-16T19:24:06.992Z,12.40
2019-05-16T19:26:37.275Z,12.40
2019-05-16T19:29:07.802Z,12.40
2019-05-16T19:31:39.180Z,12.40
2019-05-16T19:34:08.484Z,12.50
2019-05-16T19:36:39.269Z,12.40
2019-05-16T19:39:09.239Z,12.40
2019-05-16T19:41:38.913Z,12.40
2019-05-16T19:44:08.519Z,12.40
2019-05-16T19:46:38.792Z,12.40
2019-05-16T19:49:08.547Z,12.30
2019-05-16T19:51:38.001Z,12.30
2019-05-16T19:54:07.634Z,12.30
2019-05-16T19:56:37.512Z,12.30
2019-05-16T19:59:07.171Z,12.30
2019-05-16T20:01:36.983Z,12.30
2019-05-16T20:04:06.454Z,12.30
2019-05-16T20:06:36.971Z,12.30
2019-05-16T20:09:08.370Z,12.30
2019-05-16T20:11:37.884Z,12.30
2019-05-16T20:14:07.586Z,12.30
2019-05-16T20:16:37.136Z,12.30
2019-05-16T20:19:06.617Z,12.20
2019-05-16T20:21:36.868Z,12.30
2019-05-16T20:24:07.498Z,12.30
2019-05-16T20:26:37.020Z,12.30
2019-05-16T20:29:07.753Z,12.20
2019-05-16T20:31:37.289Z,12.20
2019-05-16T20:34:09.203Z,12.20
2019-05-16T20:36:37.976Z,12.20
2019-05-16T20:39:08.966Z,12.20
2019-05-16T20:41:38.360Z,12.20
2019-05-16T20:44:07.897Z,12.20
2019-05-16T20:46:37.347Z,12.20
2019-05-16T20:49:07.717Z,12.10
2019-05-16T20:51:37.656Z,12.10
2019-05-16T20:54:07.410Z,12.10
2019-05-16T20:56:36.805Z,12.10
2019-05-16T20:59:07.018Z,12.10
2019-05-16T21:01:36.596Z,12.10
2019-05-16T21:04:06.977Z,12.10
2019-05-16T21:06:36.632Z,12.10
2019-05-16T21:09:07.109Z,12.10
2019-05-16T21:11:37.136Z,12.10
2019-05-16T21:14:07.104Z,12.10
2019-05-16T21:16:38.021Z,12.10
2019-05-16T21:19:07.688Z,12.10
2019-05-16T21:21:37.188Z,12.00
2019-05-16T21:24:07.087Z,12.00
2019-05-16T21:26:36.847Z,12.00
2019-05-16T21:29:07.493Z,12.00
2019-05-16T21:31:37.110Z,12.00
2019-05-16T21:34:07.150Z,11.90
2019-05-16T21:36:36.905Z,11.90
2019-05-16T21:39:08.630Z,11.90
2019-05-16T21:41:38.229Z,12.00
2019-05-16T21:44:07.763Z,11.90
2019-05-16T21:46:37.103Z,11.90
2019-05-16T21:49:07.497Z,11.90
2019-05-16T21:51:37.480Z,11.90
2019-05-16T21:54:07.211Z,11.90
2019-05-16T21:56:37.315Z,11.90
2019-05-16T21:59:07.115Z,11.90
2019-05-16T22:01:37.344Z,11.80
2019-05-16T22:04:07.401Z,11.80
2019-05-16T22:06:36.983Z,11.80
2019-05-16T22:09:08.406Z,11.80
2019-05-16T22:11:37.918Z,11.80
2019-05-16T22:14:07.329Z,11.80
2019-05-16T22:16:37.124Z,11.80
2019-05-16T22:19:07.187Z,11.80
2019-05-16T22:21:36.765Z,11.80
2019-05-16T22:24:06.724Z,11.80
2019-05-16T22:26:36.349Z,11.80
2019-05-16T22:29:06.880Z,11.80
2019-05-16T22:31:36.734Z,11.80
2019-05-16T22:34:07.537Z,11.80
2019-05-16T22:36:37.221Z,11.70
2019-05-16T22:39:07.767Z,11.70
2019-05-16T22:41:37.311Z,11.70
2019-05-16T22:44:08.951Z,11.70
2019-05-16T22:46:37.962Z,11.60
2019-05-16T22:49:07.707Z,11.60
2019-05-16T22:51:37.303Z,11.50
2019-05-16T22:54:07.654Z,11.50
2019-05-16T22:56:37.656Z,11.40
2019-05-16T22:59:07.411Z,11.40
2019-05-16T23:01:37.668Z,11.40
2019-05-16T23:04:07.410Z,11.50
2019-05-16T23:06:36.885Z,11.40
2019-05-16T23:09:07.556Z,11.50
2019-05-16T23:11:37.047Z,11.50
2019-05-16T23:14:06.533Z,11.50
2019-05-16T23:16:37.434Z,11.40
2019-05-16T23:19:07.176Z,11.50
2019-05-16T23:21:36.856Z,11.50
2019-05-16T23:24:06.798Z,11.40
2019-05-16T23:26:36.447Z,11.40
2019-05-16T23:29:06.019Z,11.40
2019-05-16T23:31:36.531Z,11.40
2019-05-16T23:34:07.155Z,11.40
2019-05-16T23:36:37.065Z,11.40
2019-05-16T23:39:08.170Z,11.40
2019-05-16T23:41:37.563Z,11.40
2019-05-16T23:44:07.464Z,11.40
2019-05-16T23:46:37.159Z,11.40
2019-05-16T23:49:07.312Z,11.40
2019-05-16T23:51:36.964Z,11.30
2019-05-16T23:54:06.813Z,11.30
2019-05-16T23:56:37.283Z,11.30
2019-05-16T23:59:07.028Z,11.30
